Time;durP1;ratioP1;P1;durP2;ratioP2;P2;SDS_P1;SDS_P2;PMS_P1;PMS_P2;Temp;Humidity;BMP_temperature;BMP_pressure;BME280_temperature;BME280_humidity;BME280_pressure;Samples;Min_cycle;Max_cycle;Signal;HPM_P1;HPM_P2
2022/04/10 00:02:25;;;;;;;6.28;1.65;;;;;;;2.67;92.60;100830.53;5051748;28;20229;-46
2022/04/10 00:04:50;;;;;;;7.82;1.63;;;;;;;2.62;92.82;100822.63;5034131;28;20200;-47
2022/04/10 00:07:16;;;;;;;13.73;2.22;;;;;;;2.54;92.91;100826.19;5052010;28;20252;-44
2022/04/10 00:09:41;;;;;;;10.75;2.55;;;;;;;2.53;93.18;100822.63;5051932;28;20168;-45
2022/04/10 00:12:07;;;;;;;12.07;2.30;;;;;;;2.59;92.89;100824.38;5052118;28;20179;-46
2022/04/10 00:14:33;;;;;;;10.68;1.80;;;;;;;2.53;93.43;100824.41;5051838;28;20184;-48
2022/04/10 00:16:58;;;;;;;11.05;2.33;;;;;;;2.52;93.97;100815.59;5051747;28;20191;-45
2022/04/10 00:19:23;;;;;;;12.35;2.30;;;;;;;2.47;94.14;100823.56;5041345;28;20172;-48
2022/04/10 00:21:49;;;;;;;8.25;2.55;;;;;;;2.43;94.48;100819.19;5054997;22;20352;-44
2022/04/10 00:24:14;;;;;;;10.90;2.25;;;;;;;2.38;95.03;100818.31;5045203;28;20541;-45
2022/04/10 00:26:39;;;;;;;11.18;2.28;;;;;;;2.48;95.12;100827.09;5031136;28;20334;-48
2022/04/10 00:29:05;;;;;;;10.70;2.50;;;;;;;2.39;95.77;100830.66;5046477;28;20641;-45
2022/04/10 00:31:31;;;;;;;10.60;2.35;;;;;;;2.46;95.89;100826.22;5031242;28;20176;-47
2022/04/10 00:33:56;;;;;;;7.30;2.35;;;;;;;2.41;96.22;100830.66;5031507;28;20630;-47
2022/04/10 00:36:21;;;;;;;5.55;1.90;;;;;;;2.36;96.42;100827.13;5013959;28;20233;-47
2022/04/10 00:38:47;;;;;;;16.10;2.40;;;;;;;2.30;96.42;100835.13;5030967;28;20184;-47
2022/04/10 00:41:13;;;;;;;19.95;2.80;;;;;;;2.18;96.96;100826.31;5031530;28;20168;-45
2022/04/10 00:43:39;;;;;;;12.75;2.30;;;;;;;2.20;97.39;100832.50;5031442;28;20175;-45
2022/04/10 00:46:05;;;;;;;12.07;2.45;;;;;;;2.12;97.56;100833.41;5029744;28;20196;-48
2022/04/10 00:48:32;;;;;;;9.38;2.30;;;;;;;2.24;97.72;100836.00;5031145;28;20218;-45
2022/04/10 00:53:42;;;;;;;5.85;1.73;;;;;;;2.14;97.93;100826.34;5031374;28;20156;-46
2022/04/10 00:56:08;;;;;;;6.03;1.60;;;;;;;2.09;97.98;100836.94;5013242;28;20167;-46
2022/04/10 00:58:34;;;;;;;10.50;2.00;;;;;;;2.04;97.78;100829.03;5030995;28;20172;-46
2022/04/10 01:01:00;;;;;;;6.85;1.65;;;;;;;2.11;97.93;100835.16;5045448;28;20179;-47
2022/04/10 01:03:25;;;;;;;11.73;2.47;;;;;;;2.00;97.71;100829.91;5046156;28;20615;-47
2022/04/10 01:05:51;;;;;;;7.57;1.60;;;;;;;2.03;97.72;100842.25;5031107;28;20196;-48
2022/04/10 01:08:18;;;;;;;6.25;1.77;;;;;;;2.01;97.75;100844.91;5029289;28;20210;-46
2022/04/10 01:10:44;;;;;;;9.65;1.65;;;;;;;2.03;97.88;100835.22;5028601;28;20564;-48
2022/04/10 01:13:10;;;;;;;12.85;1.75;;;;;;;2.04;97.52;100854.59;5029593;28;20180;-46
2022/04/10 01:15:37;;;;;;;9.80;1.77;;;;;;;2.10;97.14;100851.03;5046023;28;20560;-47
2022/04/10 01:18:04;;;;;;;7.97;1.50;;;;;;;2.13;97.13;100851.03;5031106;28;20553;-46
2022/04/10 01:20:31;;;;;;;9.55;2.03;;;;;;;2.04;96.75;100849.31;5028516;28;20200;-46
2022/04/10 01:23:02;;;;;;;6.65;1.70;;;;;;;2.08;96.80;100853.69;5049421;28;20977;-45
2022/04/10 01:25:28;;;;;;;11.52;2.20;;;;;;;2.12;97.06;100862.47;5049362;28;20203;-48
2022/04/10 01:27:54;;;;;;;9.10;1.63;;;;;;;2.03;97.23;100858.09;5048779;28;20688;-45
2022/04/10 01:30:24;;;;;;;14.65;2.20;;;;;;;2.02;96.85;100864.28;5048678;28;20182;-47
2022/04/10 01:32:49;;;;;;;7.90;1.88;;;;;;;2.00;97.22;100858.97;5048783;28;20190;-46
2022/04/10 01:35:17;;;;;;;11.70;2.97;;;;;;;2.09;97.40;100846.63;5050555;28;20163;-46
2022/04/10 01:37:46;;;;;;;10.95;2.40;;;;;;;2.11;97.37;100855.44;5049265;28;20243;-45
2022/04/10 01:40:17;;;;;;;10.23;2.13;;;;;;;2.09;97.63;100859.84;5052549;28;20552;-46
2022/04/10 01:42:42;;;;;;;13.48;2.53;;;;;;;2.05;97.44;100861.63;5058169;28;20179;-46
2022/04/10 01:45:09;;;;;;;7.97;2.00;;;;;;;2.03;97.56;100866.94;5064764;28;20218;-48
2022/04/10 01:47:35;;;;;;;11.73;2.30;;;;;;;2.07;97.48;100873.06;5048843;28;20551;-46
2022/04/10 01:50:00;;;;;;;12.18;2.15;;;;;;;2.10;97.70;100882.75;5048022;28;20179;-50
2022/04/10 01:52:26;;;;;;;8.07;2.13;;;;;;;2.05;97.89;100873.06;5065434;28;20199;-48
2022/04/10 01:54:53;;;;;;;12.23;2.47;;;;;;;2.14;97.89;100884.50;5048527;28;20171;-48
2022/04/10 01:57:18;;;;;;;12.43;3.10;;;;;;;2.17;97.64;100882.72;5048279;28;20206;-48
2022/04/10 01:59:44;;;;;;;15.63;3.17;;;;;;;2.19;97.19;100888.03;5047768;28;20180;-48
2022/04/10 02:02:09;;;;;;;13.77;2.50;;;;;;;2.10;96.83;100878.34;5047941;28;20175;-48
2022/04/10 02:04:35;;;;;;;15.63;2.58;;;;;;;2.19;96.68;100886.25;5049713;28;20179;-49
2022/04/10 02:07:01;;;;;;;10.57;3.00;;;;;;;2.10;96.12;100886.28;5065769;28;20207;-43
2022/04/10 02:09:28;;;;;;;16.58;2.72;;;;;;;2.11;96.20;100890.66;5064288;28;20625;-53
2022/04/10 02:11:54;;;;;;;13.27;2.90;;;;;;;2.09;96.32;100888.91;5048757;28;20191;-44
2022/04/10 02:14:19;;;;;;;8.40;2.05;;;;;;;2.05;96.02;100880.97;5047992;28;20187;-48
2022/04/10 02:16:45;;;;;;;10.75;2.13;;;;;;;2.15;96.12;100873.06;5048676;28;20199;-47
2022/04/10 02:19:11;;;;;;;10.77;2.28;;;;;;;2.12;96.25;100878.31;5049246;28;20198;-49
2022/04/10 02:21:37;;;;;;;11.77;2.25;;;;;;;2.12;96.28;100880.97;5048222;28;20187;-45
2022/04/10 02:24:03;;;;;;;10.82;2.30;;;;;;;2.05;96.27;100883.63;5048721;28;20614;-45
2022/04/10 02:26:28;;;;;;;12.85;2.78;;;;;;;1.99;96.73;100881.03;5049167;28;20207;-46
2022/04/10 02:28:54;;;;;;;11.73;2.08;;;;;;;1.89;97.18;100876.63;5048246;28;20651;-47
2022/04/10 02:31:20;;;;;;;10.23;2.35;;;;;;;2.00;97.17;100874.84;5048625;28;20611;-47
2022/04/10 02:33:45;;;;;;;10.45;1.98;;;;;;;2.02;97.50;100880.13;5049615;28;20183;-48
2022/04/10 02:36:14;;;;;;;9.98;2.58;;;;;;;1.92;97.85;100879.25;5048063;28;20176;-45
2022/04/10 02:38:39;;;;;;;18.73;3.08;;;;;;;1.98;98.01;100887.16;5048347;28;20665;-49
2022/04/10 02:41:05;;;;;;;11.93;2.33;;;;;;;1.98;98.40;100881.88;5049092;28;20176;-45
2022/04/10 02:43:30;;;;;;;13.88;3.42;;;;;;;1.91;99.32;100882.78;5048217;28;20710;-47
2022/04/10 02:46:01;;;;;;;12.93;2.60;;;;;;;1.87;98.70;100881.03;5048046;28;20218;-46
2022/04/10 02:48:27;;;;;;;13.25;2.70;;;;;;;1.87;98.98;100891.59;5048211;28;20228;-50
2022/04/10 02:50:54;;;;;;;9.50;2.78;;;;;;;1.92;99.10;100892.47;5047546;28;20292;-47
2022/04/10 02:53:19;;;;;;;13.15;2.92;;;;;;;1.81;98.86;100884.56;5049626;28;20722;-46
2022/04/10 02:55:44;;;;;;;21.20;3.08;;;;;;;1.88;99.01;100887.19;5043353;28;20492;-45
2022/04/10 02:58:10;;;;;;;11.93;3.15;;;;;;;1.82;99.04;100880.19;5047987;28;20203;-47
2022/04/10 03:00:36;;;;;;;15.85;3.00;;;;;;;1.82;98.60;100874.88;5048998;28;20210;-44
2022/04/10 03:03:01;;;;;;;10.82;2.15;;;;;;;1.81;99.27;100887.19;5047943;28;20183;-45
2022/04/10 03:05:27;;;;;;;12.25;3.25;;;;;;;1.81;99.04;100887.19;5047990;28;20207;-47
2022/04/10 03:07:52;;;;;;;17.50;3.00;;;;;;;1.76;98.91;100882.81;5047697;28;20205;-49
2022/04/10 03:10:19;;;;;;;15.05;2.60;;;;;;;1.76;99.27;100885.47;5047367;28;20637;-46
2022/04/10 03:12:45;;;;;;;21.20;3.28;;;;;;;1.75;99.05;100889.88;5049201;28;20374;-46
2022/04/10 03:15:11;;;;;;;15.20;2.85;;;;;;;1.75;99.28;100894.25;5047559;28;20262;-50
2022/04/10 03:17:37;;;;;;;21.80;2.75;;;;;;;1.76;99.47;100888.97;5049188;28;20713;-49
2022/04/10 03:20:05;;;;;;;16.75;3.33;;;;;;;1.73;99.16;100903.94;5046903;28;20229;-46
2022/04/10 03:22:30;;;;;;;16.05;2.78;;;;;;;1.71;99.47;100903.09;5047948;28;20194;-44
2022/04/10 03:24:56;;;;;;;18.00;3.47;;;;;;;1.77;99.46;100903.97;5051483;28;20689;-46
2022/04/10 03:27:22;;;;;;;13.88;3.65;;;;;;;1.77;99.38;100908.34;5051603;28;20685;-45
2022/04/10 03:29:47;;;;;;;13.68;2.65;;;;;;;1.91;99.14;100909.22;5050899;28;20219;-51
2022/04/10 03:32:13;;;;;;;12.63;2.78;;;;;;;1.78;99.04;100910.13;5051848;28;20754;-47
2022/04/10 03:34:39;;;;;;;16.55;3.25;;;;;;;1.79;98.71;100912.75;5050916;28;20669;-51
2022/04/10 03:37:05;;;;;;;14.75;2.70;;;;;;;1.85;98.47;100910.09;5052352;28;20226;-46
2022/04/10 03:39:31;;;;;;;24.23;4.43;;;;;;;1.79;98.23;100915.41;5060965;28;20175;-46
2022/04/10 03:41:58;;;;;;;16.52;3.58;;;;;;;1.68;98.64;100924.19;5067664;28;20171;-48
2022/04/10 03:44:24;;;;;;;20.65;3.45;;;;;;;1.67;98.22;100922.44;5050664;28;20650;-49
2022/04/10 03:46:49;;;;;;;16.30;3.65;;;;;;;1.78;97.97;100918.03;5050905;28;20215;-46
2022/04/10 03:49:15;;;;;;;14.25;3.08;;;;;;;1.77;97.50;100906.59;5072214;28;20265;-46
2022/04/10 03:51:40;;;;;;;13.88;2.95;;;;;;;1.74;97.54;100913.63;5070527;28;20218;-46
2022/04/10 03:54:06;;;;;;;11.02;2.42;;;;;;;1.77;97.10;100903.97;5062713;28;20174;-51
2022/04/10 03:56:31;;;;;;;11.40;3.28;;;;;;;1.88;96.38;100898.66;5070689;28;20251;-46
2022/04/10 03:58:57;;;;;;;20.52;3.35;;;;;;;1.80;96.13;100908.34;5070648;28;20217;-50
2022/04/10 04:01:25;;;;;;;13.07;2.92;;;;;;;1.73;95.80;100919.78;5070906;28;20210;-48
2022/04/10 04:03:51;;;;;;;11.48;2.60;;;;;;;1.70;95.95;100911.88;5087828;28;20179;-48
2022/04/10 04:06:17;;;;;;;13.30;3.28;;;;;;;1.65;96.02;100925.09;5070269;28;20782;-47
2022/04/10 04:08:43;;;;;;;18.75;3.28;;;;;;;1.62;95.86;100920.69;5054314;28;20179;-46
2022/04/10 04:11:09;;;;;;;11.52;2.40;;;;;;;1.55;95.84;100934.78;5070466;28;20259;-45
2022/04/10 04:13:38;;;;;;;13.27;3.03;;;;;;;1.71;95.84;100934.78;5070576;28;20704;-47
2022/04/10 04:16:04;;;;;;;15.48;3.78;;;;;;;1.61;95.33;100947.09;5070480;28;20183;-45
2022/04/10 04:18:30;;;;;;;12.10;2.97;;;;;;;1.53;95.99;100947.09;5070500;28;20166;-45
2022/04/10 04:20:55;;;;;;;13.15;2.80;;;;;;;1.59;95.76;100951.47;5070257;28;20673;-48
2022/04/10 04:23:21;;;;;;;18.75;3.58;;;;;;;1.46;96.19;100955.00;5070370;28;20236;-52
2022/04/10 04:25:50;;;;;;;8.48;2.83;;;;;;;1.49;96.58;100960.25;5071079;28;20285;-46
2022/04/10 04:28:15;;;;;;;12.10;3.38;;;;;;;1.40;96.54;100963.78;5070034;28;20253;-47
2022/04/10 04:30:41;;;;;;;15.10;3.45;;;;;;;1.36;96.41;100969.97;5069769;28;20641;-45
2022/04/10 04:33:07;;;;;;;12.15;3.30;;;;;;;1.33;96.77;100981.38;5070369;28;20174;-45
2022/04/10 04:35:34;;;;;;;18.20;3.20;;;;;;;1.42;96.58;100976.13;5070189;28;20174;-45
2022/04/10 04:38:01;;;;;;;14.48;2.72;;;;;;;1.37;96.62;100990.19;5069785;28;20633;-43
2022/04/10 04:40:26;;;;;;;13.52;3.17;;;;;;;1.32;96.33;100994.56;5069815;28;20187;-46
2022/04/10 04:42:52;;;;;;;13.50;3.80;;;;;;;1.33;97.09;100993.69;5071031;28;20182;-45
2022/04/10 04:45:22;;;;;;;14.77;3.30;;;;;;;1.30;96.76;101001.63;5069725;28;20763;-45
2022/04/10 04:47:58;;;;;;;12.30;2.97;;;;;;;1.43;96.78;100993.72;5069886;28;20316;-44
2022/04/10 04:50:24;;;;;;;15.38;3.45;;;;;;;1.38;97.01;101002.53;5069084;28;20187;-48
2022/04/10 04:52:50;;;;;;;18.33;3.30;;;;;;;1.33;96.63;101002.47;5069512;28;20197;-45
2022/04/10 04:55:16;;;;;;;14.95;2.78;;;;;;;1.43;96.64;101008.69;5070679;28;20159;-48
2022/04/10 04:57:41;;;;;;;7.85;2.55;;;;;;;1.57;96.72;101012.22;5069616;28;20282;-42
2022/04/10 05:00:08;;;;;;;9.98;2.60;;;;;;;1.54;96.42;101003.41;5069282;28;20893;-46
2022/04/10 05:02:39;;;;;;;15.02;2.70;;;;;;;1.71;95.74;101014.88;5071075;28;20162;-45
2022/04/10 05:05:06;;;;;;;7.63;2.63;;;;;;;1.79;95.29;101013.16;5069260;28;20744;-47
2022/04/10 05:07:31;;;;;;;11.75;2.95;;;;;;;1.89;94.75;101019.28;5070439;28;20281;-44
2022/04/10 05:09:57;;;;;;;10.80;2.47;;;;;;;2.05;93.95;101028.97;5068490;28;20187;-45
2022/04/10 05:12:23;;;;;;;11.50;2.47;;;;;;;2.20;93.60;101025.44;5070519;28;20163;-51
2022/04/10 05:14:50;;;;;;;11.20;2.90;;;;;;;2.43;92.83;101041.31;5070637;28;20556;-46
2022/04/10 05:17:16;;;;;;;9.15;2.40;;;;;;;2.49;91.98;101040.38;5068908;28;20205;-44
2022/04/10 05:19:45;;;;;;;12.90;2.58;;;;;;;2.81;91.03;101045.63;5068118;28;20270;-50
2022/04/10 05:22:12;;;;;;;9.25;2.42;;;;;;;2.83;90.36;101042.97;5070238;28;20733;-46
2022/04/10 05:24:43;;;;;;;11.48;2.80;;;;;;;3.07;89.37;101055.25;5068591;28;20210;-49
2022/04/10 05:27:10;;;;;;;10.85;2.63;;;;;;;3.16;88.69;101054.31;5069026;28;20226;-45
2022/04/10 05:29:39;;;;;;;7.22;2.20;;;;;;;3.41;87.86;101053.34;5068579;28;20182;-49
2022/04/10 05:32:05;;;;;;;10.38;2.47;;;;;;;3.44;87.58;101058.59;5068734;28;20175;-48
2022/04/10 05:34:30;;;;;;;8.48;2.95;;;;;;;3.23;87.05;101059.56;5068236;28;20175;-46
2022/04/10 05:36:56;;;;;;;7.65;2.03;;;;;;;3.32;87.44;101065.72;5068146;28;20677;-47
2022/04/10 05:39:22;;;;;;;14.40;2.30;;;;;;;3.71;86.80;101078.75;5068108;28;20166;-48
2022/04/10 05:41:50;;;;;;;11.35;2.60;;;;;;;3.87;86.08;101078.66;5068866;28;20281;-46
2022/04/10 05:44:16;;;;;;;11.65;2.47;;;;;;;3.34;86.61;101082.50;5068140;28;20678;-47
2022/04/10 05:46:42;;;;;;;10.88;2.67;;;;;;;2.81;88.65;101085.31;5061472;28;20222;-49
2022/04/10 05:49:07;;;;;;;12.43;2.65;;;;;;;2.56;90.03;101087.13;5060147;28;20645;-47
2022/04/10 05:51:33;;;;;;;15.85;2.33;;;;;;;2.52;90.19;101098.59;5081046;28;20186;-48
2022/04/10 05:54:00;;;;;;;9.95;2.40;;;;;;;2.66;90.46;101090.63;5047003;28;20187;-47
2022/04/10 05:56:28;;;;;;;6.70;1.73;;;;;;;2.54;90.00;101088.03;5053269;28;20691;-50
2022/04/10 05:58:54;;;;;;;6.13;2.45;;;;;;;2.78;89.45;101095.91;5057877;28;20265;-46
2022/04/10 06:01:20;;;;;;;8.38;1.80;;;;;;;3.12;87.91;101087.84;5069082;28;20175;-49
2022/04/10 06:03:47;;;;;;;7.80;2.05;;;;;;;3.42;86.44;101097.47;5068129;28;20674;-46
2022/04/10 06:06:15;;;;;;;6.75;2.10;;;;;;;3.74;84.90;101084.91;5067915;28;20661;-46
2022/04/10 06:08:46;;;;;;;11.73;1.90;;;;;;;4.15;83.79;101091.72;5068328;28;20162;-45
2022/04/10 06:11:11;;;;;;;8.70;1.80;;;;;;;4.42;82.18;101090.63;5051718;28;20664;-47
2022/04/10 06:13:38;;;;;;;7.03;1.88;;;;;;;4.57;80.83;101094.88;5068203;28;20551;-47
2022/04/10 06:16:11;;;;;;;7.57;2.55;;;;;;;4.54;79.95;101094.03;5068184;28;20159;-46
2022/04/10 06:18:38;;;;;;;6.80;1.60;;;;;;;4.98;78.34;101098.91;5069427;28;20253;-45
2022/04/10 06:21:05;;;;;;;11.15;2.03;;;;;;;5.00;77.83;101105.09;5069027;22;20231;-45
2022/04/10 06:23:32;;;;;;;10.07;2.20;;;;;;;5.23;77.76;101102.19;5024600;28;20192;-49
2022/04/10 06:26:03;;;;;;;11.13;2.05;;;;;;;5.15;77.65;101102.25;5028556;28;20245;-49
2022/04/10 06:28:30;;;;;;;8.07;1.95;;;;;;;4.78;78.87;101107.09;5047851;28;20180;-50
2022/04/10 06:30:57;;;;;;;5.50;2.30;;;;;;;4.32;79.68;101108.38;5048063;28;20178;-48
2022/04/10 06:33:26;;;;;;;10.77;1.88;;;;;;;4.98;79.46;101093.59;5031675;28;20220;-47
2022/04/10 06:35:55;;;;;;;6.55;2.15;;;;;;;5.02;78.32;101098.84;5048124;28;20225;-46
2022/04/10 06:38:21;;;;;;;5.18;2.00;;;;;;;5.42;76.93;101093.06;5049180;28;20199;-49
2022/04/10 06:40:52;;;;;;;8.15;2.60;;;;;;;5.42;76.91;101092.19;5048309;28;20187;-42
2022/04/10 06:43:20;;;;;;;8.52;1.77;;;;;;;5.74;75.59;101095.31;5048221;28;20229;-44
2022/04/10 06:46:04;;;;;;;10.52;1.98;;;;;;;5.51;75.78;101100.03;5049253;28;20184;-45
2022/04/10 06:48:35;;;;;;;10.68;2.38;;;;;;;5.76;75.40;101109.44;5047973;28;20199;-43
2022/04/10 06:51:03;;;;;;;10.13;2.85;;;;;;;5.53;75.06;101116.84;5047754;28;20278;-44
2022/04/10 06:53:29;;;;;;;8.77;4.28;;;;;;;5.46;75.35;101112.53;5048049;28;20627;-43
2022/04/10 06:55:56;;;;;;;11.32;2.40;;;;;;;5.82;75.11;101121.78;5048012;28;20171;-41
2022/04/10 06:58:22;;;;;;;8.90;2.65;;;;;;;5.81;73.56;101117.34;5049551;28;20176;-42
2022/04/10 07:00:49;;;;;;;9.70;2.35;;;;;;;5.57;74.07;101121.22;5051085;28;20180;-42
2022/04/10 07:03:15;;;;;;;9.05;2.30;;;;;;;6.31;73.24;101125.53;5050296;28;20755;-41
2022/04/10 07:05:42;;;;;;;7.20;2.10;;;;;;;6.53;72.29;101118.06;5050676;28;20194;-41
2022/04/10 07:08:15;;;;;;;8.35;2.40;;;;;;;6.48;70.98;101126.13;5050512;28;20206;-42
2022/04/10 07:10:41;;;;;;;11.70;2.50;;;;;;;6.46;70.84;101129.72;5049528;28;20183;-43
2022/04/10 07:13:08;;;;;;;8.63;2.30;;;;;;;6.58;70.52;101125.09;5050670;28;20186;-41
2022/04/10 07:15:34;;;;;;;7.07;2.42;;;;;;;6.77;70.95;101119.44;5050116;28;20252;-43
2022/04/10 07:18:01;;;;;;;10.75;2.47;;;;;;;6.88;70.19;101121.91;5050399;28;20292;-42
2022/04/10 07:20:28;;;;;;;7.43;2.70;;;;;;;6.69;70.57;101122.25;5049960;28;20249;-43
2022/04/10 07:25:39;;;;;;;5.75;1.75;;;;;;;6.66;70.92;101130.25;5050222;28;20278;-41
2022/04/10 07:28:05;;;;;;;7.25;2.30;;;;;;;6.27;71.61;101134.47;5051392;28;20345;-44
2022/04/10 07:30:38;;;;;;;2.95;1.50;;;;;;;6.02;71.31;101131.31;5050017;28;20270;-43
2022/04/10 07:33:08;;;;;;;6.70;1.63;;;;;;;5.44;72.59;101146.19;5051216;28;20172;-42
2022/04/10 07:35:40;;;;;;;5.72;1.65;;;;;;;5.83;73.43;101149.25;5051095;28;20175;-45
2022/04/10 07:38:13;;;;;;;5.22;1.90;;;;;;;5.88;73.37;101142.09;5051208;28;20226;-43
2022/04/10 07:40:40;;;;;;;6.45;1.75;;;;;;;6.17;71.40;101144.38;5050908;28;20191;-42
2022/04/10 07:43:09;;;;;;;4.43;1.55;;;;;;;6.63;69.50;101143.63;5051421;28;20186;-44
2022/04/10 07:48:30;;;;;;;4.00;1.90;;;;;;;6.58;69.46;101156.13;5051074;28;20180;-43
2022/04/10 07:50:57;;;;;;;4.53;2.05;;;;;;;6.72;70.31;101162.13;5051099;28;20175;-43
2022/04/10 07:53:29;;;;;;;3.95;1.55;;;;;;;6.81;70.09;101145.97;5051113;28;20662;-43
2022/04/10 07:56:00;;;;;;;4.75;1.70;;;;;;;6.86;68.62;101166.31;5050977;28;20232;-42
2022/04/10 07:58:25;;;;;;;5.20;2.10;;;;;;;7.12;68.67;101157.84;5052002;28;20164;-44
2022/04/10 08:00:52;;;;;;;6.63;1.80;;;;;;;7.18;66.47;101163.94;5034174;28;20627;-43
2022/04/10 08:03:18;;;;;;;7.32;2.28;;;;;;;7.47;66.11;101157.16;5050763;28;20198;-43
2022/04/10 08:06:06;;;;;;;8.23;1.80;;;;;;;7.46;66.01;101163.44;5051626;28;20724;-44
2022/04/10 08:08:33;;;;;;;5.07;1.98;;;;;;;7.52;65.05;101167.75;5051694;28;20190;-47
2022/04/10 08:10:58;;;;;;;7.28;1.88;;;;;;;7.33;64.76;101161.91;5050009;28;20195;-44
2022/04/10 08:13:24;;;;;;;9.57;2.28;;;;;;;7.42;65.73;101167.06;5051772;28;20253;-49
2022/04/10 08:15:49;;;;;;;10.60;2.33;;;;;;;7.18;65.56;101169.28;5051406;28;20199;-46
2022/04/10 08:18:15;;;;;;;11.18;2.30;;;;;;;7.42;64.55;101175.94;5052699;28;20191;-50
2022/04/10 08:20:41;;;;;;;8.55;2.08;;;;;;;7.43;64.70;101166.13;5071319;28;20269;-47
2022/04/10 08:23:08;;;;;;;10.30;2.80;;;;;;;7.37;64.48;101171.63;5071434;28;20190;-44
2022/04/10 08:25:34;;;;;;;9.27;2.20;;;;;;;7.47;64.98;101169.63;5071703;28;20205;-48
2022/04/10 08:28:00;;;;;;;9.82;2.35;;;;;;;7.51;65.32;101184.66;5071733;28;20182;-51
2022/04/10 08:30:26;;;;;;;9.07;2.15;;;;;;;7.66;64.20;101171.00;5071198;28;20194;-48
2022/04/10 08:32:52;;;;;;;12.20;2.72;;;;;;;8.16;64.89;101181.50;5071479;28;20171;-45
2022/04/10 08:35:18;;;;;;;7.72;2.08;;;;;;;8.33;62.47;101174.00;5071111;28;20163;-48
2022/04/10 08:37:44;;;;;;;9.55;2.72;;;;;;;8.00;62.18;101178.28;5071614;28;20214;-48
2022/04/10 08:40:11;;;;;;;9.50;2.05;;;;;;;8.29;62.38;101183.00;5070751;28;20260;-48
2022/04/10 08:42:37;;;;;;;9.77;2.33;;;;;;;8.01;62.58;101183.59;5071228;28;20210;-43
2022/04/10 08:45:05;;;;;;;8.93;2.38;;;;;;;8.29;62.22;101182.09;5071052;28;20186;-43
2022/04/10 08:47:31;;;;;;;8.48;2.30;;;;;;;8.45;62.40;101172.84;5053444;28;20283;-46
2022/04/10 08:49:59;;;;;;;10.27;2.97;;;;;;;8.61;61.85;101176.88;5049468;28;20266;-46
2022/04/10 08:52:25;;;;;;;8.80;2.42;;;;;;;8.31;62.23;101182.94;5049205;28;20187;-47
2022/04/10 08:54:50;;;;;;;10.45;2.35;;;;;;;8.02;63.27;101177.38;5049201;28;20184;-51
2022/04/10 08:57:16;;;;;;;8.50;2.40;;;;;;;7.83;62.91;101179.53;5031463;28;20207;-48
2022/04/10 08:59:42;;;;;;;9.60;2.70;;;;;;;7.43;64.67;101182.13;5048571;28;20187;-46
2022/04/10 09:02:10;;;;;;;13.82;2.90;;;;;;;8.13;63.59;101190.44;5049649;28;20349;-44
2022/04/10 09:04:35;;;;;;;9.77;2.75;;;;;;;8.10;63.48;101187.84;5049314;28;20187;-44
2022/04/10 09:07:09;;;;;;;10.48;2.22;;;;;;;8.57;63.72;101187.69;5050863;28;20681;-47
2022/04/10 09:09:40;;;;;;;10.18;2.22;;;;;;;8.33;62.51;101192.69;5050090;28;20176;-50
2022/04/10 09:12:05;;;;;;;11.40;2.50;;;;;;;7.87;62.38;101175.03;5050758;28;20305;-47
2022/04/10 09:14:34;;;;;;;9.35;2.30;;;;;;;7.81;62.83;101191.16;5050621;28;20269;-49
2022/04/10 09:17:10;;;;;;;9.38;2.55;;;;;;;8.00;63.37;101196.97;5050513;28;20268;-46
2022/04/10 09:19:41;;;;;;;8.52;2.25;;;;;;;8.33;63.13;101203.38;5061840;28;20190;-46
2022/04/10 09:22:45;;;;;;;9.13;2.10;;;;;;;8.81;61.13;101189.78;5069715;28;20186;-44
2022/04/10 09:25:12;;;;;;;6.78;1.90;;;;;;;8.16;58.48;101198.41;5024854;28;20231;-44
2022/04/10 09:27:43;;;;;;;8.82;1.90;;;;;;;8.09;58.84;101202.13;5027746;28;20563;-46
2022/04/10 09:30:12;;;;;;;11.68;2.67;;;;;;;8.14;59.76;101199.34;5048489;28;20227;-46
2022/04/10 09:32:45;;;;;;;8.60;2.38;;;;;;;8.18;60.30;101207.25;5070081;28;20179;-50
2022/04/10 09:35:13;;;;;;;10.10;2.13;;;;;;;7.96;60.85;101192.59;5069781;28;20159;-44
2022/04/10 09:37:46;;;;;;;13.50;2.40;;;;;;;7.88;61.85;101207.91;5070120;28;20191;-46
2022/04/10 09:40:24;;;;;;;9.38;2.05;;;;;;;7.00;65.65;101220.25;5069731;28;20190;-48
2022/04/10 09:43:10;;;;;;;10.95;2.53;;;;;;;6.98;68.13;101227.38;5068389;28;20236;-45
2022/04/10 09:45:38;;;;;;;5.85;1.88;;;;;;;7.16;68.19;101229.72;5069441;28;20233;-49
2022/04/10 09:48:17;;;;;;;9.77;2.58;;;;;;;7.82;67.18;101223.13;5069701;28;20246;-47
2022/04/10 09:50:42;;;;;;;8.23;1.98;;;;;;;7.62;64.58;101219.97;5069659;28;20166;-46
2022/04/10 09:53:08;;;;;;;7.93;1.80;;;;;;;8.05;62.73;101219.97;5069921;28;20169;-47
2022/04/10 09:55:41;;;;;;;7.32;1.85;;;;;;;8.29;60.89;101227.47;5068847;28;20525;-46
2022/04/10 09:58:10;;;;;;;9.68;1.90;;;;;;;8.53;60.27;101218.94;5070061;28;20205;-45
2022/04/10 10:00:37;;;;;;;6.70;2.05;;;;;;;8.96;57.73;101222.34;5069638;28;20175;-45
2022/04/10 10:03:03;;;;;;;4.75;1.60;;;;;;;8.82;56.13;101212.03;5052361;28;20167;-45
2022/04/10 10:05:29;;;;;;;4.32;1.52;;;;;;;8.72;56.52;101211.34;5069476;28;20252;-47
2022/04/10 10:07:55;;;;;;;6.75;1.55;;;;;;;8.77;55.26;101211.28;5069009;28;20206;-43
2022/04/10 10:10:22;;;;;;;2.63;1.38;;;;;;;8.91;52.51;101216.25;5069658;28;20269;-48
2022/04/10 10:12:48;;;;;;;5.75;1.23;;;;;;;8.66;52.72;101235.56;5069656;28;20495;-46
2022/04/10 10:15:14;;;;;;;4.93;1.50;;;;;;;8.91;53.60;101222.47;5069884;28;20688;-44
2022/04/10 10:17:40;;;;;;;9.07;1.60;;;;;;;9.12;53.35;101233.53;5069096;28;20237;-46
2022/04/10 10:20:07;;;;;;;5.78;1.38;;;;;;;8.80;55.17;101240.56;5068099;28;20197;-44
2022/04/10 10:22:32;;;;;;;6.30;1.58;;;;;;;8.47;54.48;101224.44;5069656;28;20190;-46
2022/04/10 10:25:09;;;;;;;7.90;1.80;;;;;;;8.99;56.26;101231.19;5069067;28;20240;-47
2022/04/10 10:28:00;;;;;;;6.75;1.88;;;;;;;9.08;55.49;101228.28;5069583;28;20336;-45
2022/04/10 10:30:51;;;;;;;7.15;1.73;;;;;;;8.81;55.72;101240.53;5069028;28;20175;-47
2022/04/10 10:33:25;;;;;;;10.68;2.38;;;;;;;8.32;56.54;101243.44;5071630;28;20166;-45
2022/04/10 10:35:54;;;;;;;7.18;1.92;;;;;;;8.53;57.02;101242.97;5073565;28;20183;-47
2022/04/10 10:38:23;;;;;;;12.43;1.83;;;;;;;8.28;57.65;101250.63;5073577;28;20546;-47
2022/04/10 10:40:50;;;;;;;11.05;2.90;;;;;;;7.68;64.03;101272.34;5073033;28;20190;-42
2022/04/10 10:43:25;;;;;;;7.95;2.25;;;;;;;7.69;68.47;101266.94;5073059;28;20629;-46
2022/04/10 10:45:52;;;;;;;10.93;2.47;;;;;;;8.37;65.66;101258.41;5073949;28;20186;-45
2022/04/10 10:48:24;;;;;;;8.50;2.33;;;;;;;8.80;63.32;101251.25;5073612;28;20206;-43
2022/04/10 10:50:50;;;;;;;10.75;2.45;;;;;;;8.50;62.79;101250.19;5073283;28;20745;-43
2022/04/10 10:53:17;;;;;;;7.55;2.00;;;;;;;7.84;61.95;101253.31;5073749;28;20505;-44
2022/04/10 10:55:44;;;;;;;8.88;2.28;;;;;;;7.75;61.05;101244.63;5072579;28;20261;-46
2022/04/10 10:58:15;;;;;;;8.20;2.22;;;;;;;7.54;60.27;101254.81;5073594;28;20265;-46
2022/04/10 11:00:44;;;;;;;8.40;2.25;;;;;;;7.53;59.61;101254.84;5072200;28;20253;-45
2022/04/10 11:03:10;;;;;;;7.32;1.83;;;;;;;7.78;56.70;101266.78;5073012;28;20584;-44
2022/04/10 11:05:36;;;;;;;12.27;2.47;;;;;;;7.93;56.83;101278.94;5073054;28;20218;-50
2022/04/10 11:08:05;;;;;;;9.70;1.80;;;;;;;8.08;57.60;101271.53;5071368;28;20218;-46
2022/04/10 11:10:35;;;;;;;6.10;1.55;;;;;;;8.51;57.16;101271.50;5072539;28;20804;-47
2022/04/10 11:13:05;;;;;;;10.57;2.35;;;;;;;8.73;55.20;101279.03;5072490;28;20502;-44
2022/04/10 11:15:54;;;;;;;7.50;1.85;;;;;;;8.97;53.84;101281.13;5072924;28;20588;-43
2022/04/10 11:18:23;;;;;;;5.38;1.63;;;;;;;9.32;54.37;101284.72;5071255;28;20572;-44
2022/04/10 11:20:56;;;;;;;9.95;2.25;;;;;;;9.08;52.83;101295.09;5072120;28;20178;-43
2022/04/10 11:23:28;;;;;;;5.55;1.35;;;;;;;9.12;52.88;101287.88;5071480;28;20173;-43
2022/04/10 11:25:54;;;;;;;6.88;1.58;;;;;;;8.99;53.85;101298.00;5072487;28;20229;-43
2022/04/10 11:28:24;;;;;;;5.90;1.58;;;;;;;8.28;53.82;101281.78;5072626;28;20740;-51
2022/04/10 11:30:49;;;;;;;5.95;1.35;;;;;;;8.22;55.71;101296.13;5072114;28;20645;-51
2022/04/10 11:33:15;;;;;;;5.60;1.40;;;;;;;8.29;54.10;101294.19;5072220;28;20178;-46
2022/04/10 11:35:43;;;;;;;7.38;1.52;;;;;;;8.61;53.53;101289.06;5070850;28;20265;-46
2022/04/10 11:38:17;;;;;;;6.03;1.60;;;;;;;9.11;53.16;101291.47;5072015;28;20289;-47
2022/04/10 11:40:47;;;;;;;9.15;2.05;;;;;;;9.35;54.34;101281.06;5071338;28;20250;-48